KCMI

University of Illinois-Willard Airport

Champaign/Urbana, Illinois, USA
METAR KCMI 181453Z 22013KT 10SM CLR M09/M12 A3029 RMK AO2 SLP272 T10891122 58004
Observed Flight Rules
Jan-18 @ 14:53 UTC (52 minutes ago) Visual Flight Rules
Wind Visibility Clouds
220° at 13 knots 10 miles
  • Clear skies
Temperatures Readings
Current -9°C / 16°F
Dewpoint -12°C / 10°F
Humidity 79%
Altimeter 30.29" Hg
Pressure 1027.2 hPa
Elevation 228
METAR KCMI 181453Z 22013KT 10SM CLR M09/M12 A3029 RMK AO2 SLP272 T10891122 58004
Observed Flight Rules
Jan-18 @ 14:53 UTC
(52 minutes ago)
VFR
Wind Visibility
220° at 13 knots 10 miles
Clouds
  • Clear skies
Temperature Dewpoint
-9°C / 16°F -12°C / 10°F
Humidity Altimeter Pressure
79% 30.29" Hg 1027.2 hPa